Time;durP1;ratioP1;P1;durP2;ratioP2;P2;SDS_P1;SDS_P2;PMS_P1;PMS_P2;Temp;Humidity;BMP_temperature;BMP_pressure;BME280_temperature;BME280_humidity;BME280_pressure;Samples;Min_cycle;Max_cycle;Signal;HPM_P1;HPM_P2
2022/05/20 00:01:47;;;;;;;13.60;9.10;;;23.40;45.30;;;;;;4952861;28;20468;-73
2022/05/20 00:04:13;;;;;;;19.30;9.63;;;23.40;45.40;;;;;;4971425;28;20525;-73
2022/05/20 00:06:39;;;;;;;15.57;9.33;;;23.30;45.80;;;;;;4968360;28;20189;-74
2022/05/20 00:09:05;;;;;;;14.57;9.30;;;23.50;43.20;;;;;;4973829;28;20429;-73
2022/05/20 00:11:31;;;;;;;16.70;9.70;;;23.60;43.50;;;;;;4973468;28;20482;-73
2022/05/20 00:13:57;;;;;;;13.93;9.40;;;23.90;43.30;;;;;;4973069;28;20275;-73
2022/05/20 00:16:22;;;;;;;14.63;9.10;;;23.80;45.20;;;;;;4972877;28;20208;-73
2022/05/20 00:18:48;;;;;;;19.60;9.90;;;23.80;44.10;;;;;;4972058;28;20192;-73
2022/05/20 00:21:13;;;;;;;17.33;9.27;;;23.80;42.30;;;;;;4969933;28;20208;-74
2022/05/20 00:23:39;;;;;;;16.03;8.90;;;23.90;42.50;;;;;;4969134;28;20571;-74
2022/05/20 00:26:05;;;;;;;15.70;9.40;;;23.70;43.80;;;;;;4970297;28;20196;-72
2022/05/20 00:28:30;;;;;;;16.13;9.20;;;23.80;43.20;;;;;;4969688;28;20675;-73
2022/05/20 00:31:00;;;;;;;15.50;9.97;;;23.70;44.00;;;;;;4970753;28;20750;-73
2022/05/20 00:33:27;;;;;;;18.03;9.50;;;23.50;43.90;;;;;;4970787;28;20754;-72
2022/05/20 00:35:53;;;;;;;16.57;9.40;;;23.50;44.90;;;;;;4969328;28;20788;-73
2022/05/20 00:38:19;;;;;;;13.10;9.20;;;23.70;43.60;;;;;;4971656;28;20435;-73
2022/05/20 00:40:47;;;;;;;14.93;9.27;;;23.50;44.90;;;;;;4971900;28;20447;-73
2022/05/20 00:43:24;;;;;;;12.83;8.87;;;23.30;44.80;;;;;;4971160;28;20177;-73
2022/05/20 00:45:52;;;;;;;12.20;8.80;;;23.30;45.60;;;;;;4970897;28;20672;-74
2022/05/20 00:48:18;;;;;;;15.50;9.60;;;23.20;44.80;;;;;;4970384;28;20435;-73
2022/05/20 00:50:49;;;;;;;26.87;10.10;;;23.40;44.60;;;;;;4968102;28;20475;-72
2022/05/20 00:53:19;;;;;;;18.70;9.37;;;23.20;45.50;;;;;;4969199;28;20176;-73
2022/05/20 00:55:44;;;;;;;15.33;10.20;;;23.30;45.00;;;;;;4972535;28;20442;-72
2022/05/20 00:58:14;;;;;;;22.03;10.50;;;23.30;45.40;;;;;;4969741;28;20426;-73
2022/05/20 01:00:47;;;;;;;17.87;9.23;;;23.30;44.70;;;;;;4970702;28;20202;-73
2022/05/20 01:03:15;;;;;;;20.07;10.07;;;23.50;42.70;;;;;;4970685;28;20451;-73
2022/05/20 01:05:47;;;;;;;18.03;9.23;;;23.70;41.10;;;;;;4971456;28;20441;-72
2022/05/20 01:08:19;;;;;;;14.60;9.60;;;23.60;42.80;;;;;;4970487;28;20827;-74
2022/05/20 01:10:45;;;;;;;19.53;9.30;;;23.80;42.40;;;;;;4970764;28;20477;-73
2022/05/20 01:13:12;;;;;;;21.97;9.60;;;23.80;42.20;;;;;;4971313;28;20428;-74
2022/05/20 01:15:38;;;;;;;15.53;8.60;;;24.00;40.70;;;;;;4973013;28;20198;-74
2022/05/20 01:18:04;;;;;;;18.73;9.20;;;23.90;40.80;;;;;;4970274;28;20442;-73
2022/05/20 01:20:46;;;;;;;17.97;8.77;;;23.70;42.40;;;;;;4971602;28;20307;-74
2022/05/20 01:23:16;;;;;;;14.47;9.10;;;23.50;43.40;;;;;;4970425;28;20976;-73
2022/05/20 01:25:45;;;;;;;14.70;9.60;;;22.90;44.40;;;;;;4953175;28;20437;-73
2022/05/20 01:28:11;;;;;;;20.23;10.00;;;22.10;49.30;;;;;;4969276;28;20433;-74
2022/05/20 01:30:41;;;;;;;18.07;9.80;;;22.40;49.30;;;;;;4971522;28;20487;-73
2022/05/20 01:33:07;;;;;;;14.00;9.50;;;22.80;48.00;;;;;;4971031;28;20433;-73
2022/05/20 01:35:35;;;;;;;14.27;9.23;;;22.60;48.00;;;;;;4953849;28;20444;-73
2022/05/20 01:38:01;;;;;;;15.93;10.13;;;22.40;48.20;;;;;;4969084;28;20437;-74
2022/05/20 01:40:37;;;;;;;17.93;10.70;;;22.20;49.80;;;;;;4971403;28;20535;-73
2022/05/20 01:43:11;;;;;;;16.13;9.90;;;22.10;51.00;;;;;;4970466;28;20189;-74
2022/05/20 01:45:59;;;;;;;17.23;10.40;;;22.10;50.00;;;;;;4969335;28;20511;-74
2022/05/20 01:48:31;;;;;;;13.80;10.13;;;22.00;51.30;;;;;;4971720;28;20795;-73
2022/05/20 01:50:57;;;;;;;20.87;12.30;;;22.40;49.40;;;;;;4969193;28;20487;-73
2022/05/20 01:53:50;;;;;;;20.80;11.87;;;22.10;49.80;;;;;;4970703;28;20434;-73
2022/05/20 01:56:25;;;;;;;19.27;13.57;;;22.40;50.70;;;;;;4969441;28;20183;-73
2022/05/20 01:59:04;;;;;;;17.57;11.27;;;22.10;49.90;;;;;;4968701;28;20415;-73
2022/05/20 02:01:39;;;;;;;20.10;11.47;;;21.60;53.90;;;;;;4969023;28;20462;-74
2022/05/20 02:04:12;;;;;;;17.20;11.73;;;21.90;53.30;;;;;;4970590;28;20438;-73
2022/05/20 02:06:45;;;;;;;21.23;11.97;;;22.20;51.40;;;;;;4969511;28;20498;-74
2022/05/20 02:09:27;;;;;;;17.07;11.07;;;22.40;50.40;;;;;;4968788;28;20431;-74
2022/05/20 02:11:55;;;;;;;17.27;11.40;;;22.60;49.30;;;;;;4966641;28;20519;-73
2022/05/20 02:14:31;;;;;;;15.33;11.63;;;22.50;49.90;;;;;;4970668;28;20479;-73
2022/05/20 02:17:08;;;;;;;17.70;11.27;;;22.50;50.10;;;;;;4970166;28;20519;-75
2022/05/20 02:19:39;;;;;;;19.70;11.50;;;22.50;50.80;;;;;;4969326;28;20429;-74
2022/05/20 02:22:11;;;;;;;19.00;11.40;;;22.50;50.30;;;;;;5002663;23;20506;-73
2022/05/20 02:24:38;;;;;;;17.87;11.50;;;22.50;50.50;;;;;;5007757;28;20519;-74
2022/05/20 02:27:11;;;;;;;18.20;11.63;;;22.50;50.40;;;;;;5010865;28;20837;-73
2022/05/20 02:29:47;;;;;;;20.70;12.23;;;22.50;49.80;;;;;;5009072;28;20427;-73
2022/05/20 02:32:23;;;;;;;21.80;11.60;;;22.60;49.20;;;;;;5005226;28;20456;-73
2022/05/20 02:34:51;;;;;;;21.37;12.37;;;22.60;50.20;;;;;;5002639;28;20973;-73
2022/05/20 02:37:24;;;;;;;16.53;11.20;;;22.50;50.30;;;;;;5005749;28;20463;-74
2022/05/20 02:39:50;;;;;;;17.30;10.70;;;22.40;50.90;;;;;;5003368;28;20488;-73
2022/05/20 02:42:16;;;;;;;20.03;11.30;;;22.40;50.60;;;;;;5003894;28;20500;-74
2022/05/20 02:44:42;;;;;;;17.93;11.50;;;22.10;51.90;;;;;;5001995;28;20491;-74
2022/05/20 02:47:08;;;;;;;21.50;11.80;;;22.10;51.80;;;;;;5002110;28;20441;-74
2022/05/20 02:49:35;;;;;;;18.00;12.10;;;22.30;52.00;;;;;;5003324;28;20450;-74
2022/05/20 02:52:01;;;;;;;19.27;11.57;;;22.00;51.70;;;;;;5007159;28;20479;-73
2022/05/20 02:54:26;;;;;;;19.53;11.27;;;21.80;54.40;;;;;;5002619;28;20436;-74
2022/05/20 02:56:52;;;;;;;22.70;11.37;;;21.90;53.10;;;;;;5002296;28;20452;-73
2022/05/20 03:05:00;;;;;;;19.67;12.47;;;22.20;50.70;;;;;;4971261;28;20432;-72
2022/05/20 03:07:26;;;;;;;22.17;12.47;;;22.20;50.70;;;;;;5002697;28;20972;-72
2022/05/20 03:09:54;;;;;;;23.27;12.63;;;21.90;51.60;;;;;;5002986;28;20261;-73
2022/05/20 03:12:20;;;;;;;20.50;10.83;;;21.90;52.80;;;;;;5005793;28;20228;-73
2022/05/20 03:14:45;;;;;;;17.13;11.73;;;22.10;52.10;;;;;;5002396;28;20432;-73
2022/05/20 03:17:11;;;;;;;20.13;12.17;;;22.20;51.30;;;;;;5005009;28;20431;-72
2022/05/20 03:19:38;;;;;;;19.40;12.17;;;22.40;51.10;;;;;;5004429;28;20187;-73
2022/05/20 03:22:05;;;;;;;22.70;13.47;;;22.30;50.60;;;;;;5005040;28;20483;-73
2022/05/20 03:24:31;;;;;;;18.03;12.17;;;22.30;50.90;;;;;;5004152;28;20435;-73
2022/05/20 03:26:57;;;;;;;23.37;11.70;;;22.20;50.80;;;;;;5009578;28;20488;-73
2022/05/20 03:29:24;;;;;;;21.10;12.13;;;22.20;51.20;;;;;;5011901;28;20436;-73
2022/05/20 03:31:50;;;;;;;25.60;12.00;;;22.30;51.60;;;;;;5003495;28;20214;-73
2022/05/20 03:34:17;;;;;;;27.97;12.57;;;22.50;50.40;;;;;;5010437;28;20425;-73
2022/05/20 03:36:44;;;;;;;18.67;12.87;;;22.50;50.90;;;;;;5004033;28;20527;-73
2022/05/20 03:39:14;;;;;;;20.90;12.70;;;22.30;50.60;;;;;;5005500;28;20947;-73
2022/05/20 03:41:40;;;;;;;16.60;11.33;;;22.30;50.60;;;;;;5006044;28;20437;-73
2022/05/20 03:44:08;;;;;;;17.57;11.67;;;22.20;50.50;;;;;;5007281;28;20416;-74
2022/05/20 03:46:46;;;;;;;19.40;12.10;;;22.30;50.80;;;;;;5007575;28;20491;-74
2022/05/20 03:49:13;;;;;;;16.93;11.60;;;22.30;50.30;;;;;;5004816;28;20805;-73
2022/05/20 03:51:40;;;;;;;17.17;12.63;;;22.30;50.80;;;;;;5005358;28;20892;-73
2022/05/20 03:54:06;;;;;;;18.50;12.07;;;22.20;49.70;;;;;;5004049;28;20424;-73
2022/05/20 03:56:32;;;;;;;20.53;11.90;;;21.70;53.60;;;;;;5007652;28;20444;-74
2022/05/20 03:58:57;;;;;;;22.73;11.40;;;22.10;52.30;;;;;;5004580;28;20656;-73
2022/05/20 04:04:08;;;;;;;26.97;11.20;;;22.30;51.90;;;;;;5008627;28;20193;-73
2022/05/20 04:06:33;;;;;;;20.30;11.50;;;22.30;52.30;;;;;;5020990;28;20430;-73
2022/05/20 04:08:59;;;;;;;17.07;11.40;;;22.40;51.50;;;;;;5016684;28;20257;-74
2022/05/20 04:11:28;;;;;;;23.10;12.23;;;22.40;51.10;;;;;;5016594;28;20496;-72
2022/05/20 04:13:54;;;;;;;19.00;12.20;;;22.50;50.60;;;;;;5021483;28;20177;-72
2022/05/20 04:16:19;;;;;;;20.83;11.17;;;22.40;50.60;;;;;;5019700;28;20458;-72
2022/05/20 04:18:45;;;;;;;19.93;11.80;;;22.40;51.30;;;;;;5020778;28;20184;-72
2022/05/20 04:21:13;;;;;;;23.53;10.83;;;22.30;52.60;;;;;;5024305;28;20299;-73
2022/05/20 04:23:39;;;;;;;25.13;11.90;;;22.30;52.20;;;;;;4997449;28;20299;-72
2022/05/20 04:26:05;;;;;;;15.60;11.90;;;22.30;52.00;;;;;;5010781;28;20517;-73
2022/05/20 04:28:30;;;;;;;19.00;11.80;;;22.30;51.80;;;;;;5021023;28;20428;-72
2022/05/20 04:30:58;;;;;;;21.20;11.63;;;22.40;51.30;;;;;;5013266;28;20251;-73
2022/05/20 04:33:25;;;;;;;22.90;11.47;;;22.50;51.50;;;;;;5004095;28;20211;-72
2022/05/20 04:35:51;;;;;;;18.93;11.00;;;22.50;51.10;;;;;;5015747;28;20428;-72
2022/05/20 04:38:17;;;;;;;16.27;10.33;;;22.30;51.00;;;;;;5020634;28;20486;-72
2022/05/20 04:40:43;;;;;;;23.50;11.43;;;21.60;51.60;;;;;;5016493;28;20822;-77
2022/05/20 04:48:38;;;;;;;18.80;11.70;;;21.90;52.40;;;;;;4997593;28;20425;-74
2022/05/20 04:51:03;;;;;;;19.70;11.50;;;22.20;52.40;;;;;;5015586;28;20828;-74
2022/05/20 04:56:13;;;;;;;19.83;11.17;;;22.60;50.30;;;;;;5007746;28;20783;-74
2022/05/20 04:58:39;;;;;;;25.23;11.33;;;22.60;50.40;;;;;;5015979;28;20509;-74
2022/05/20 05:01:05;;;;;;;17.70;10.97;;;22.70;51.30;;;;;;5013601;28;20175;-74
2022/05/20 05:03:31;;;;;;;22.73;11.27;;;22.80;49.10;;;;;;5010334;28;20234;-73
2022/05/20 05:05:57;;;;;;;14.80;10.07;;;22.90;49.10;;;;;;5018544;28;20189;-74
2022/05/20 05:08:22;;;;;;;25.40;11.60;;;23.00;49.10;;;;;;5017668;28;20180;-76
2022/05/20 05:10:49;;;;;;;22.33;10.10;;;22.90;47.30;;;;;;5019221;28;21165;-76
2022/05/20 05:13:15;;;;;;;13.87;10.60;;;22.20;49.70;;;;;;5019632;28;20193;-76
2022/05/20 05:15:43;;;;;;;16.53;10.77;;;21.70;52.60;;;;;;5024447;28;20576;-78
2022/05/20 05:18:16;;;;;;;17.20;10.60;;;21.50;54.40;;;;;;5022878;28;21139;-73
2022/05/20 05:20:46;;;;;;;14.93;10.10;;;21.90;53.30;;;;;;5018679;28;20427;-74
2022/05/20 05:23:13;;;;;;;17.90;10.07;;;22.10;53.00;;;;;;5031094;28;20457;-74
2022/05/20 05:25:39;;;;;;;14.80;10.57;;;21.90;52.40;;;;;;5020613;28;20432;-74
2022/05/20 05:28:05;;;;;;;27.40;11.30;;;22.30;52.20;;;;;;5022116;28;20949;-74
2022/05/20 05:30:31;;;;;;;35.57;11.80;;;22.20;51.20;;;;;;5013941;28;20234;-74
2022/05/20 05:32:57;;;;;;;40.53;12.30;;;22.20;52.40;;;;;;5017904;28;20505;-76
2022/05/20 05:35:27;;;;;;;28.17;11.67;;;22.20;53.00;;;;;;5020208;28;20427;-75
2022/05/20 05:37:53;;;;;;;24.10;11.07;;;22.50;51.80;;;;;;5009556;28;20422;-75
2022/05/20 05:40:22;;;;;;;19.23;11.03;;;22.70;50.90;;;;;;5016742;28;20948;-75
2022/05/20 05:42:48;;;;;;;21.07;11.23;;;22.50;52.10;;;;;;5009855;28;20988;-74
2022/05/20 05:45:17;;;;;;;19.03;12.03;;;22.50;52.10;;;;;;5009719;28;20446;-74
2022/05/20 05:47:46;;;;;;;20.13;12.53;;;22.30;53.00;;;;;;5005941;28;20467;-75
2022/05/20 05:50:12;;;;;;;20.10;11.70;;;22.00;55.80;;;;;;5004685;28;21270;-75
2022/05/20 05:52:37;;;;;;;21.13;11.53;;;21.90;56.80;;;;;;5012850;28;20461;-75
2022/05/20 05:55:03;;;;;;;19.87;10.93;;;22.20;56.40;;;;;;5015931;28;20191;-75
2022/05/20 05:57:29;;;;;;;19.50;11.13;;;22.40;54.60;;;;;;5020315;28;20238;-75
2022/05/20 05:59:55;;;;;;;18.20;11.37;;;22.90;52.90;;;;;;5017177;28;20473;-75
2022/05/20 06:02:21;;;;;;;18.67;11.20;;;23.10;50.90;;;;;;5023181;28;20213;-74
2022/05/20 06:04:48;;;;;;;19.33;11.43;;;23.20;50.90;;;;;;5031480;28;20994;-75
2022/05/20 06:07:14;;;;;;;18.70;11.43;;;23.00;50.70;;;;;;5022164;28;20658;-74
2022/05/20 06:09:40;;;;;;;26.97;11.80;;;22.70;51.50;;;;;;5014434;28;20438;-74
2022/05/20 06:12:07;;;;;;;17.93;11.07;;;23.30;49.00;;;;;;5018319;28;20469;-74
2022/05/20 06:14:33;;;;;;;23.63;11.60;;;23.50;47.00;;;;;;5031467;28;20411;-74
2022/05/20 06:16:58;;;;;;;24.97;10.67;;;22.90;48.90;;;;;;5031332;28;20909;-74
2022/05/20 06:19:24;;;;;;;15.57;11.00;;;22.70;50.30;;;;;;5003646;28;20174;-75
2022/05/20 06:21:51;;;;;;;27.40;11.50;;;23.30;48.90;;;;;;4991191;28;20205;-73
2022/05/20 06:24:17;;;;;;;15.23;10.30;;;23.40;46.20;;;;;;4991825;28;20676;-74
2022/05/20 06:26:44;;;;;;;18.37;10.47;;;22.60;49.60;;;;;;4990102;28;20409;-74
2022/05/20 06:29:10;;;;;;;18.90;10.60;;;22.80;49.50;;;;;;5003607;28;20421;-74
2022/05/20 06:31:36;;;;;;;17.57;10.23;;;23.30;47.50;;;;;;5010841;28;20452;-74
2022/05/20 06:34:01;;;;;;;14.80;9.60;;;23.00;47.80;;;;;;5011402;28;20910;-74
2022/05/20 06:41:58;;;;;;;14.83;9.13;;;24.50;42.60;;;;;;4994290;28;20526;-72
2022/05/20 06:44:24;;;;;;;14.03;9.60;;;24.50;41.70;;;;;;4997743;28;20590;-74
2022/05/20 06:46:50;;;;;;;18.93;9.90;;;24.30;43.00;;;;;;5011529;28;20416;-74
2022/05/20 06:49:16;;;;;;;21.17;10.50;;;24.40;43.40;;;;;;5010920;28;20838;-74
2022/05/20 06:51:42;;;;;;;15.10;9.30;;;24.40;42.50;;;;;;5009006;28;20613;-73
2022/05/20 06:54:10;;;;;;;20.27;9.80;;;24.50;42.60;;;;;;5010675;28;20404;-74
2022/05/20 06:56:37;;;;;;;26.87;11.63;;;24.10;43.50;;;;;;5010987;28;20180;-75
2022/05/20 06:59:07;;;;;;;17.73;10.47;;;24.00;44.30;;;;;;5010795;28;20404;-74
2022/05/20 07:01:32;;;;;;;13.97;9.30;;;24.40;42.70;;;;;;5005398;28;20456;-74
2022/05/20 07:03:58;;;;;;;19.33;10.00;;;24.70;41.10;;;;;;4994700;28;20495;-74
2022/05/20 07:06:25;;;;;;;19.73;11.67;;;24.80;41.60;;;;;;4995313;28;20253;-74
2022/05/20 07:08:52;;;;;;;24.87;11.60;;;24.70;42.80;;;;;;4994978;28;20496;-75
2022/05/20 07:11:20;;;;;;;35.10;10.60;;;24.40;43.80;;;;;;4995436;28;20470;-74
2022/05/20 07:13:47;;;;;;;18.63;10.23;;;24.20;45.20;;;;;;4994585;28;20514;-73
2022/05/20 07:16:13;;;;;;;20.10;11.07;;;24.40;44.50;;;;;;4995047;28;20417;-74
2022/05/20 07:18:39;;;;;;;16.93;10.67;;;24.60;43.40;;;;;;4995230;28;20408;-75
2022/05/20 07:21:06;;;;;;;15.83;9.97;;;25.10;42.90;;;;;;4994656;28;20496;-74
2022/05/20 07:23:32;;;;;;;23.83;10.40;;;25.20;41.40;;;;;;5008872;28;20855;-74
2022/05/20 07:25:59;;;;;;;17.03;10.83;;;25.10;42.30;;;;;;5013780;28;20418;-74
2022/05/20 07:28:25;;;;;;;18.17;10.87;;;24.90;42.70;;;;;;4994708;28;20428;-74
2022/05/20 07:30:51;;;;;;;20.77;10.70;;;25.30;40.70;;;;;;4994193;28;20908;-74
2022/05/20 07:33:17;;;;;;;18.47;11.57;;;25.60;41.40;;;;;;4993391;28;20276;-74
2022/05/20 07:35:42;;;;;;;22.73;11.07;;;25.30;40.80;;;;;;5001564;28;20772;-74
2022/05/20 07:38:09;;;;;;;15.37;11.40;;;25.00;41.30;;;;;;5011938;28;20231;-74
2022/05/20 07:40:35;;;;;;;18.50;10.80;;;25.00;41.60;;;;;;5013801;28;20184;-74
2022/05/20 07:43:01;;;;;;;23.53;10.40;;;25.30;41.80;;;;;;5013662;28;20962;-74
2022/05/20 07:45:26;;;;;;;20.53;11.40;;;24.70;44.00;;;;;;5013473;28;20574;-74
2022/05/20 07:47:52;;;;;;;21.20;10.97;;;24.70;45.20;;;;;;5009505;28;20437;-74
2022/05/20 07:50:18;;;;;;;20.23;11.50;;;24.70;45.40;;;;;;4992730;28;20300;-74
2022/05/20 07:55:34;;;;;;;23.30;10.80;;;25.10;44.00;;;;;;4994252;28;20177;-75
2022/05/20 07:58:01;;;;;;;14.97;11.23;;;24.90;45.30;;;;;;4994303;28;20417;-74
2022/05/20 08:00:27;;;;;;;19.33;9.73;;;24.90;45.40;;;;;;5012828;28;20466;-74
2022/05/20 08:02:56;;;;;;;18.73;10.40;;;24.90;45.40;;;;;;5013397;28;20431;-74
2022/05/20 08:05:22;;;;;;;16.97;10.33;;;25.30;43.60;;;;;;5013710;28;20173;-74
2022/05/20 08:07:49;;;;;;;19.00;10.00;;;25.40;43.20;;;;;;5013233;28;20412;-74
2022/05/20 08:10:19;;;;;;;14.37;9.30;;;25.30;42.80;;;;;;5008604;28;20575;-74
2022/05/20 08:12:45;;;;;;;14.80;9.27;;;25.50;43.40;;;;;;4991380;28;20433;-75
2022/05/20 08:15:12;;;;;;;27.83;9.83;;;25.90;41.70;;;;;;4992029;28;20413;-75
2022/05/20 08:17:40;;;;;;;19.40;9.27;;;26.10;41.60;;;;;;4993560;28;20409;-74
2022/05/20 08:20:09;;;;;;;12.73;8.37;;;26.10;41.20;;;;;;4998422;28;20427;-72
2022/05/20 08:22:36;;;;;;;14.97;9.70;;;26.50;39.80;;;;;;5013154;28;20483;-73
2022/05/20 08:25:03;;;;;;;18.60;9.50;;;26.20;39.50;;;;;;5013126;28;20426;-72
2022/05/20 08:27:30;;;;;;;13.60;9.30;;;26.20;39.50;;;;;;5013483;28;20937;-72
2022/05/20 08:29:56;;;;;;;17.63;8.70;;;26.30;39.50;;;;;;4994381;28;20471;-72
2022/05/20 08:32:23;;;;;;;16.37;9.13;;;26.20;39.60;;;;;;5010711;28;20511;-72
2022/05/20 08:34:49;;;;;;;21.53;9.30;;;26.50;39.60;;;;;;5012838;28;20440;-73
2022/05/20 08:37:17;;;;;;;15.00;8.03;;;26.70;37.80;;;;;;5012826;28;20854;-73
2022/05/20 08:39:42;;;;;;;20.27;8.70;;;27.20;35.70;;;;;;5013158;28;20412;-73
2022/05/20 08:42:14;;;;;;;14.20;8.93;;;27.70;33.80;;;;;;5010878;28;20895;-73
2022/05/20 08:44:42;;;;;;;22.23;7.93;;;28.00;32.80;;;;;;5013071;28;20719;-73
2022/05/20 08:47:37;;;;;;;13.93;8.77;;;27.50;34.40;;;;;;5012994;28;20470;-73
2022/05/20 08:50:07;;;;;;;21.93;8.40;;;27.70;34.10;;;;;;5012873;28;20451;-72
2022/05/20 08:52:33;;;;;;;15.97;8.00;;;27.60;33.80;;;;;;5010755;28;20435;-72
2022/05/20 08:54:59;;;;;;;12.83;7.63;;;27.80;32.40;;;;;;5012831;28;20823;-73
2022/05/20 08:57:33;;;;;;;11.23;7.73;;;28.40;31.40;;;;;;5012374;28;20961;-73
2022/05/20 09:00:00;;;;;;;22.93;7.60;;;28.20;31.60;;;;;;5012656;28;20156;-73
2022/05/20 09:02:27;;;;;;;23.10;8.13;;;28.00;29.80;;;;;;5010244;28;20803;-73
2022/05/20 09:04:53;;;;;;;16.20;8.20;;;27.90;31.30;;;;;;4999481;28;20425;-73
2022/05/20 09:07:20;;;;;;;17.93;7.90;;;27.90;31.30;;;;;;4993137;28;20433;-73
2022/05/20 09:09:53;;;;;;;11.57;7.13;;;27.90;31.30;;;;;;4992768;28;20185;-73
2022/05/20 09:12:31;;;;;;;20.50;6.87;;;28.40;28.60;;;;;;4992380;28;20469;-73
2022/05/20 09:18:02;;;;;;;13.57;7.50;;;29.00;28.00;;;;;;4992723;28;20489;-73
2022/05/20 09:20:28;;;;;;;19.57;7.23;;;28.70;28.70;;;;;;4992884;28;20409;-73
2022/05/20 09:22:58;;;;;;;15.30;7.20;;;29.10;28.20;;;;;;4991616;28;20603;-73
2022/05/20 09:25:29;;;;;;;12.73;6.73;;;29.70;26.60;;;;;;4994932;28;20224;-73
2022/05/20 09:28:21;;;;;;;15.10;7.53;;;29.40;25.60;;;;;;5008895;28;20436;-73
2022/05/20 09:30:50;;;;;;;12.33;6.77;;;29.00;27.20;;;;;;5002317;28;20466;-73
2022/05/20 09:33:24;;;;;;;22.43;6.93;;;29.40;26.80;;;;;;5011619;28;20428;-73
2022/05/20 09:35:58;;;;;;;8.43;6.20;;;29.60;24.70;;;;;;5012169;28;20412;-73
2022/05/20 09:38:31;;;;;;;14.53;6.50;;;29.20;22.70;;;;;;5012005;28;20408;-73
2022/05/20 09:40:57;;;;;;;12.03;6.43;;;29.50;22.80;;;;;;5002891;28;20430;-72
2022/05/20 09:43:35;;;;;;;17.97;6.37;;;29.70;22.40;;;;;;4993492;28;20428;-73
2022/05/20 09:46:01;;;;;;;12.10;5.63;;;29.70;21.20;;;;;;4993546;28;20165;-73
2022/05/20 09:48:49;;;;;;;8.87;5.90;;;29.30;21.40;;;;;;4992148;28;20413;-73
2022/05/20 09:51:16;;;;;;;11.60;5.73;;;29.60;21.10;;;;;;4996771;28;21012;-73
2022/05/20 09:53:50;;;;;;;10.63;5.37;;;29.80;20.40;;;;;;5011462;28;20519;-73
2022/05/20 09:56:30;;;;;;;12.83;5.37;;;30.10;20.00;;;;;;5011993;28;20395;-73
2022/05/20 09:59:30;;;;;;;15.77;5.70;;;30.50;19.50;;;;;;5010712;28;20416;-73
2022/05/20 10:02:39;;;;;;;11.13;5.67;;;30.30;19.80;;;;;;4985759;28;21311;-73
2022/05/20 10:05:14;;;;;;;14.63;5.57;;;30.60;20.30;;;;;;4950649;29;20583;-73
2022/05/20 10:07:46;;;;;;;20.67;6.03;;;30.10;20.50;;;;;;4950811;29;20423;-73
2022/05/20 10:10:34;;;;;;;12.40;5.90;;;29.90;20.70;;;;;;4950628;29;20419;-73
2022/05/20 10:13:02;;;;;;;11.53;6.03;;;30.10;21.00;;;;;;4948692;29;21068;-73
2022/05/20 10:15:38;;;;;;;16.23;6.27;;;30.00;21.40;;;;;;4950811;28;20423;-73
2022/05/20 10:18:13;;;;;;;17.07;6.47;;;30.50;22.30;;;;;;4950747;29;20446;-73
2022/05/20 10:21:02;;;;;;;13.53;6.67;;;30.50;22.40;;;;;;4951151;29;20418;-74
2022/05/20 10:23:38;;;;;;;12.60;6.30;;;30.70;21.90;;;;;;4948710;29;20609;-73
2022/05/20 10:26:19;;;;;;;13.13;6.10;;;30.70;21.80;;;;;;4945601;29;20510;-73
2022/05/20 10:34:54;;;;;;;20.13;7.00;;;29.80;23.00;;;;;;4932202;29;20390;-74
2022/05/20 10:37:38;;;;;;;11.57;6.80;;;30.90;22.50;;;;;;4935663;29;20506;-73
2022/05/20 10:40:27;;;;;;;19.13;6.67;;;31.70;19.50;;;;;;4989465;28;20545;-73
2022/05/20 10:43:14;;;;;;;14.33;6.10;;;30.50;20.60;;;;;;4996400;28;20444;-73
2022/05/20 10:48:57;;;;;;;13.20;6.27;;;31.30;20.60;;;;;;4995770;28;20407;-73
2022/05/20 10:52:02;;;;;;;14.10;5.87;;;31.30;19.30;;;;;;4995285;28;20488;-73
2022/05/20 10:54:58;;;;;;;9.57;6.10;;;31.10;19.40;;;;;;4953533;28;20530;-74
2022/05/20 10:57:46;;;;;;;9.37;5.77;;;31.10;20.50;;;;;;5015295;28;20459;-73
2022/05/20 11:00:17;;;;;;;12.40;6.53;;;31.10;20.60;;;;;;5015177;28;20431;-73
2022/05/20 11:03:16;;;;;;;8.23;5.33;;;30.50;21.10;;;;;;5014691;28;20485;-74
2022/05/20 11:05:45;;;;;;;11.17;5.90;;;31.20;20.10;;;;;;5012487;28;20426;-73
2022/05/20 11:08:32;;;;;;;16.37;5.60;;;31.50;19.40;;;;;;5014878;28;20443;-73
2022/05/20 11:11:16;;;;;;;12.43;5.23;;;31.00;20.30;;;;;;5014463;28;21040;-73
2022/05/20 11:14:07;;;;;;;12.53;5.50;;;31.10;19.10;;;;;;5013013;28;20462;-73
2022/05/20 11:17:09;;;;;;;13.87;5.67;;;31.80;18.00;;;;;;5014652;28;20736;-73
2022/05/20 11:20:12;;;;;;;20.10;5.47;;;31.00;17.20;;;;;;5014146;28;20414;-73
2022/05/20 11:22:38;;;;;;;12.93;5.37;;;31.20;18.80;;;;;;5012143;28;20497;-73
2022/05/20 11:25:10;;;;;;;15.73;4.60;;;32.60;16.80;;;;;;5014229;28;20971;-73
2022/05/20 11:27:51;;;;;;;20.10;5.10;;;33.90;13.60;;;;;;5014459;28;20403;-73
2022/05/20 11:30:19;;;;;;;24.03;4.77;;;34.70;13.00;;;;;;5014213;28;20396;-74
2022/05/20 11:33:09;;;;;;;7.53;4.33;;;35.30;11.90;;;;;;5012797;28;20467;-74
2022/05/20 11:35:59;;;;;;;15.67;4.93;;;36.60;10.90;;;;;;4994633;28;20524;-73
2022/05/20 11:38:57;;;;;;;23.03;4.87;;;35.30;10.90;;;;;;4994658;28;20397;-73
2022/05/20 11:41:53;;;;;;;26.13;4.30;;;36.20;9.50;;;;;;4994109;28;20425;-73
2022/05/20 11:44:46;;;;;;;14.70;4.43;;;37.50;9.70;;;;;;4999692;28;20758;-73
2022/05/20 11:47:30;;;;;;;14.17;4.43;;;37.10;9.10;;;;;;5013817;28;20958;-73
2022/05/20 11:50:22;;;;;;;7.40;4.10;;;35.90;10.80;;;;;;5013969;28;20474;-74
2022/05/20 11:52:54;;;;;;;12.13;4.40;;;35.40;10.70;;;;;;5010694;28;20568;-73
2022/05/20 11:55:24;;;;;;;12.03;4.27;;;36.00;10.10;;;;;;5003723;28;20411;-73
2022/05/20 11:58:17;;;;;;;8.10;4.10;;;35.90;10.70;;;;;;4993917;28;20503;-73
2022/05/20 12:00:43;;;;;;;11.37;4.13;;;37.10;8.80;;;;;;4994205;28;20385;-72
2022/05/20 12:03:16;;;;;;;11.30;4.57;;;36.60;8.60;;;;;;4993775;28;20431;-73
2022/05/20 12:05:45;;;;;;;10.50;4.43;;;37.00;8.50;;;;;;5000401;28;20408;-73
2022/05/20 12:08:44;;;;;;;16.27;4.80;;;37.30;8.10;;;;;;5013848;28;20444;-73
2022/05/20 12:11:35;;;;;;;12.27;4.43;;;38.50;7.90;;;;;;5013384;28;20460;-73
2022/05/20 12:14:04;;;;;;;11.70;4.33;;;39.30;6.20;;;;;;5005159;28;20428;-73
2022/05/20 12:16:31;;;;;;;14.07;4.20;;;40.10;6.50;;;;;;5011620;28;20446;-73
2022/05/20 12:24:46;;;;;;;14.90;4.80;;;37.20;8.60;;;;;;5013467;28;20391;-73
2022/05/20 12:27:20;;;;;;;14.57;4.20;;;37.70;7.80;;;;;;5011903;28;20427;-74
2022/05/20 12:30:23;;;;;;;17.63;4.97;;;36.20;8.40;;;;;;5013426;28;20408;-73
2022/05/20 12:32:50;;;;;;;14.67;4.53;;;36.30;9.10;;;;;;4999205;28;20850;-73
2022/05/20 12:35:21;;;;;;;11.23;4.80;;;36.50;8.30;;;;;;5012888;28;20408;-73
2022/05/20 12:37:46;;;;;;;11.27;4.90;;;35.10;10.30;;;;;;5010458;28;20436;-73
2022/05/20 12:40:24;;;;;;;15.70;5.17;;;35.30;10.70;;;;;;5013081;28;20428;-73
2022/05/20 12:43:04;;;;;;;9.80;4.73;;;34.80;10.40;;;;;;5013683;28;20200;-73
2022/05/20 12:45:48;;;;;;;17.77;4.90;;;35.10;10.30;;;;;;5013121;28;20471;-72
2022/05/20 12:48:16;;;;;;;17.13;5.53;;;35.00;11.20;;;;;;5010747;28;20416;-73
2022/05/20 12:50:41;;;;;;;12.20;4.83;;;34.90;10.90;;;;;;5013121;28;20546;-72
2022/05/20 12:53:10;;;;;;;12.67;5.17;;;34.90;12.60;;;;;;5012853;28;20515;-73
2022/05/20 12:55:39;;;;;;;16.40;5.00;;;35.00;11.30;;;;;;5012997;28;20243;-73
2022/05/20 12:58:07;;;;;;;11.93;4.57;;;35.50;9.70;;;;;;5012324;28;20806;-73
2022/05/20 13:00:41;;;;;;;10.47;5.20;;;35.70;10.80;;;;;;5011233;28;20522;-73
2022/05/20 13:03:32;;;;;;;18.30;5.23;;;35.50;10.20;;;;;;5012537;28;20447;-73
2022/05/20 13:06:01;;;;;;;13.20;5.10;;;35.40;11.40;;;;;;5012590;28;20956;-73
2022/05/20 13:08:44;;;;;;;12.17;4.70;;;34.70;11.70;;;;;;5012890;28;20868;-73
2022/05/20 13:11:12;;;;;;;11.93;4.50;;;34.70;11.70;;;;;;5010098;28;20540;-73
2022/05/20 13:13:39;;;;;;;14.47;5.27;;;35.80;10.40;;;;;;5012681;28;20915;-73
2022/05/20 13:16:08;;;;;;;8.90;4.90;;;36.70;10.70;;;;;;5012350;28;20404;-74
2022/05/20 13:18:37;;;;;;;10.40;5.00;;;36.60;11.20;;;;;;5012551;28;20412;-73
2022/05/20 13:21:18;;;;;;;9.10;4.60;;;37.00;11.30;;;;;;5010369;28;20435;-73
2022/05/20 13:23:54;;;;;;;10.80;4.50;;;36.90;9.50;;;;;;5012354;28;20456;-73
2022/05/20 13:26:29;;;;;;;15.73;5.47;;;35.90;10.80;;;;;;5012475;28;20424;-73
2022/05/20 13:29:18;;;;;;;10.90;5.13;;;35.80;10.50;;;;;;5012600;28;20477;-73
2022/05/20 13:31:44;;;;;;;12.90;4.90;;;35.50;12.20;;;;;;5009882;28;20463;-73
2022/05/20 13:34:09;;;;;;;12.07;4.90;;;35.70;11.40;;;;;;5012290;28;20482;-73
2022/05/20 13:36:46;;;;;;;13.10;4.87;;;35.20;11.70;;;;;;5012238;28;20180;-73